Time;durP1;ratioP1;P1;durP2;ratioP2;P2;SDS_P1;SDS_P2;PMS_P1;PMS_P2;Temp;Humidity;BMP_temperature;BMP_pressure;BME280_temperature;BME280_humidity;BME280_pressure;Samples;Min_cycle;Max_cycle;Signal;HPM_P1;HPM_P2
2023/04/05 00:00:43;;;;;;;7.78;4.00;;;;;;;2.89;61.04;97174.34;6297517;28;19983;-73
2023/04/05 00:03:47;;;;;;;8.05;3.90;;;;;;;2.87;61.56;97177.91;6298238;28;20044;-74
2023/04/05 00:06:52;;;;;;;9.52;4.05;;;;;;;2.85;61.62;97174.47;6297059;28;20059;-73
2023/04/05 00:09:56;;;;;;;6.47;3.50;;;;;;;2.85;62.58;97179.69;6298039;28;20040;-73
2023/04/05 00:13:01;;;;;;;8.65;3.63;;;;;;;2.76;62.33;97169.56;6298371;28;20047;-73
2023/04/05 00:16:05;;;;;;;8.35;3.08;;;;;;;2.72;62.83;97173.13;6298467;28;20494;-74
2023/04/05 00:19:11;;;;;;;;;;;;;;;2.68;61.39;97170.63;6298560;28;20044;-73
2023/04/05 00:22:19;;;;;;;10.90;3.67;;;;;;;2.64;62.53;97166.41;6297976;28;20066;-73
2023/04/05 00:25:22;;;;;;;9.23;3.90;;;;;;;2.60;62.58;97164.78;6298204;28;20516;-73
2023/04/05 00:28:25;;;;;;;;;;;;;;;2.54;62.80;97164.13;6296482;28;20581;-74
2023/04/05 00:31:30;;;;;;;10.35;4.05;;;;;;;2.44;62.61;97169.59;6297790;28;20021;-74
2023/04/05 00:34:35;;;;;;;11.25;4.05;;;;;;;2.35;62.33;97168.97;6297537;28;20044;-73
2023/04/05 00:37:40;;;;;;;14.98;5.13;;;;;;;2.31;62.80;97177.75;6297990;28;20559;-74
2023/04/05 00:40:45;;;;;;;10.85;4.10;;;;;;;2.24;62.76;97172.72;6297754;28;20044;-74
2023/04/05 00:43:50;;;;;;;20.15;5.93;;;;;;;2.18;63.02;97178.09;6297708;28;20409;-74
2023/04/05 00:46:56;;;;;;;13.52;4.60;;;;;;;2.16;62.78;97179.88;6297156;28;20414;-74
2023/04/05 00:50:00;;;;;;;16.98;5.55;;;;;;;2.17;62.62;97173.78;6300493;28;20507;-73
2023/04/05 00:53:05;;;;;;;;;;;;;;;2.15;62.61;97174.69;6295643;28;20041;-73
2023/04/05 00:56:12;;;;;;;20.80;5.82;;;;;;;2.06;62.95;97173.19;6279248;28;19927;-73
2023/04/05 00:59:17;;;;;;;27.92;7.93;;;;;;;2.05;62.50;97171.50;6271605;28;20052;-74
2023/04/05 01:02:35;;;;;;;21.45;6.40;;;;;;;2.10;63.43;97177.44;6272139;28;20494;-74
2023/04/05 01:06:03;;;;;;;23.98;8.45;;;;;;;2.15;63.87;97172.97;6294660;28;20036;-73
2023/04/05 01:09:55;;;;;;;33.97;9.02;;;;;;;2.15;64.19;97157.41;6272311;28;20043;-74
2023/04/05 01:13:01;;;;;;;41.47;10.10;;;;;;;2.15;63.57;97161.72;6269785;28;20510;-74
2023/04/05 01:16:08;;;;;;;34.92;9.40;;;;;;;2.16;63.88;97153.91;6272044;28;20055;-73
2023/04/05 01:19:40;;;;;;;29.50;9.35;;;;;;;2.18;64.01;97152.13;6270593;28;20041;-73
2023/04/05 01:23:30;;;;;;;39.47;10.77;;;;;;;2.22;64.37;97143.34;6292568;28;20067;-73
2023/04/05 01:27:06;;;;;;;23.60;8.93;;;;;;;2.24;64.44;97136.38;6271449;28;20056;-74
2023/04/05 01:30:28;;;;;;;34.80;8.65;;;;;;;2.23;64.71;97137.25;6286145;28;20041;-74
2023/04/05 01:33:46;;;;;;;32.45;9.38;;;;;;;2.23;64.72;97139.84;6268360;28;20052;-73
2023/04/05 01:37:01;;;;;;;30.55;9.50;;;;;;;2.26;64.37;97133.72;6272214;28;20346;-74
2023/04/05 01:40:05;;;;;;;27.38;8.18;;;;;;;2.21;64.76;97131.28;6295653;28;20310;-73
2023/04/05 01:43:14;;;;;;;34.17;10.95;;;;;;;2.14;65.22;97128.88;6291470;28;20045;-74
2023/04/05 01:46:19;;;;;;;32.17;12.25;;;;;;;2.08;65.76;97129.06;6296380;28;20043;-73
2023/04/05 01:49:25;;;;;;;21.40;8.90;;;;;;;2.12;65.22;97131.50;6295963;28;20131;-73
2023/04/05 01:52:30;;;;;;;25.00;6.93;;;;;;;2.20;65.46;97121.75;6295826;28;20043;-74
2023/04/05 01:55:35;;;;;;;19.25;6.07;;;;;;;2.27;65.33;97124.22;6283017;28;20048;-74
2023/04/05 01:58:38;;;;;;;21.98;6.10;;;;;;;2.29;65.62;97125.84;6282689;28;20509;-74
2023/04/05 02:01:41;;;;;;;14.70;5.43;;;;;;;2.33;65.19;97124.03;6294670;28;20048;-75
2023/04/05 02:04:48;;;;;;;13.55;5.13;;;;;;;2.34;65.42;97125.72;6264840;28;20060;-73
2023/04/05 02:07:51;;;;;;;13.70;5.10;;;;;;;2.34;65.26;97130.91;6269229;28;20060;-75
2023/04/05 02:10:56;;;;;;;12.43;4.55;;;;;;;2.36;65.52;97127.38;6290177;28;20047;-74
2023/04/05 02:14:03;;;;;;;13.57;4.55;;;;;;;2.39;65.32;97129.91;6292948;28;20139;-73
2023/04/05 02:17:32;;;;;;;13.93;4.03;;;;;;;2.42;65.33;97126.38;6269383;28;20041;-73
2023/04/05 02:20:37;;;;;;;11.95;4.80;;;;;;;2.44;65.21;97125.44;6271517;28;20028;-74
2023/04/05 02:23:42;;;;;;;17.15;5.78;;;;;;;2.50;65.13;97131.34;6268300;28;20056;-74
2023/04/05 02:26:47;;;;;;;10.80;4.75;;;;;;;2.52;65.32;97133.00;6280440;28;20506;-73
2023/04/05 02:29:54;;;;;;;12.32;5.38;;;;;;;2.54;64.99;97128.59;6294654;28;20047;-74
2023/04/05 02:32:58;;;;;;;22.08;5.45;;;;;;;2.61;65.27;97140.53;6284398;28;20163;-73
2023/04/05 02:36:13;;;;;;;15.90;5.72;;;;;;;2.70;65.56;97135.06;6269780;28;20126;-74
2023/04/05 02:39:18;;;;;;;12.77;5.30;;;;;;;2.76;65.27;97149.63;6270275;28;20049;-73
2023/04/05 02:42:23;;;;;;;;;;;;;;;2.84;65.64;97136.41;6285488;28;20045;-75
2023/04/05 02:45:28;;;;;;;15.40;5.22;;;;;;;2.91;64.57;97136.16;6293025;28;19924;-74
2023/04/05 02:48:34;;;;;;;12.77;5.22;;;;;;;3.03;64.35;97139.28;6293534;28;20040;-75
2023/04/05 02:51:39;;;;;;;15.43;5.00;;;;;;;3.10;64.31;97133.84;6294447;28;20052;-74
2023/04/05 02:54:45;;;;;;;18.92;5.90;;;;;;;3.17;64.16;97133.66;6293840;28;20063;-74
2023/04/05 02:57:50;;;;;;;15.70;5.95;;;;;;;3.25;64.04;97136.88;6293269;28;20044;-72
2023/04/05 03:00:55;;;;;;;18.33;4.97;;;;;;;3.35;63.83;97127.88;6278261;28;20040;-75
2023/04/05 03:03:59;;;;;;;24.00;6.78;;;;;;;3.41;63.72;97132.88;6291671;28;20057;-73
2023/04/05 03:07:04;;;;;;;16.67;6.50;;;;;;;3.52;63.91;97122.16;6293626;28;20043;-74
2023/04/05 03:10:08;;;;;;;20.42;8.27;;;;;;;3.62;63.36;97114.88;6293775;28;20033;-74
2023/04/05 03:13:16;;;;;;;29.08;8.27;;;;;;;3.73;63.18;97113.59;6292196;28;20052;-74
2023/04/05 03:16:21;;;;;;;27.42;10.05;;;;;;;3.83;62.94;97116.75;6294375;28;20055;-75
2023/04/05 03:19:25;;;;;;;;;;;;;;;3.93;62.47;97115.53;6294686;28;20040;-74
2023/04/05 03:22:28;;;;;;;31.50;12.73;;;;;;;3.99;62.68;97115.34;6292051;28;19921;-73
2023/04/05 03:25:36;;;;;;;37.33;15.20;;;;;;;4.09;62.35;97115.84;6294151;28;20397;-74
2023/04/05 03:28:44;;;;;;;53.10;20.58;;;;;;;4.20;62.27;97113.72;6292775;28;20041;-74
2023/04/05 03:31:50;;;;;;;54.67;24.55;;;;;;;4.36;62.16;97116.63;6293884;28;20425;-76
2023/04/05 03:34:54;;;;;;;51.55;21.65;;;;;;;4.49;61.90;97110.03;6295862;28;20063;-76
2023/04/05 03:37:57;;;;;;;;;;;;;;;4.61;61.25;97115.72;6298329;28;20040;-74
2023/04/05 03:41:03;;;;;;;49.50;19.65;;;;;;;4.76;61.02;97120.38;6288984;28;20309;-76
2023/04/05 03:44:08;;;;;;;46.38;19.20;;;;;;;4.87;60.94;97115.59;6285351;28;20079;-74
2023/04/05 03:47:13;;;;;;;48.15;18.63;;;;;;;4.99;60.87;97118.66;6298720;28;20041;-75
2023/04/05 03:50:16;;;;;;;;;;;;;;;5.10;60.04;97106.88;6299285;28;20047;-76
2023/04/05 03:53:20;;;;;;;44.55;17.98;;;;;;;5.23;60.07;97119.44;6313713;28;20019;-74
2023/04/05 03:56:26;;;;;;;45.58;17.50;;;;;;;5.37;59.82;97115.34;6291601;28;20047;-74
2023/04/05 03:59:30;;;;;;;43.15;19.05;;;;;;;5.46;59.96;97118.50;6298361;28;20036;-74
2023/04/05 04:02:32;;;;;;;;;;;;;;;5.60;59.11;97117.06;6296896;28;20040;-74
2023/04/05 04:05:37;;;;;;;45.97;20.02;;;;;;;5.67;59.19;97122.88;6298040;28;19927;-74
2023/04/05 04:08:40;;;;;;;;;;;;;;;5.81;58.41;97124.91;6297219;28;20079;-73
2023/04/05 04:11:44;;;;;;;61.00;22.17;;;;;;;5.90;58.66;97123.66;6297880;28;20058;-75
2023/04/05 04:14:49;;;;;;;62.97;22.73;;;;;;;6.06;58.31;97122.13;6297388;28;20056;-74
2023/04/05 04:17:53;;;;;;;64.40;25.60;;;;;;;6.22;58.32;97120.53;6296473;28;20040;-75
2023/04/05 04:20:57;;;;;;;;;;;;;;;6.41;57.99;97125.81;6298156;28;20424;-73
2023/04/05 04:24:02;;;;;;;58.15;24.60;;;;;;;6.60;57.22;97120.63;6296013;28;20441;-74
2023/04/05 04:27:09;;;;;;;69.47;27.02;;;;;;;6.82;57.00;97119.63;6297570;28;20044;-75
2023/04/05 04:30:14;;;;;;;67.20;27.77;;;;;;;7.04;56.50;97109.88;6296238;28;20067;-73
2023/04/05 04:33:20;;;;;;;64.38;30.73;;;;;;;7.27;56.08;97121.03;6297442;28;20441;-75
2023/04/05 04:36:25;;;;;;;68.55;27.70;;;;;;;7.49;55.86;97124.31;6297367;28;20512;-75
2023/04/05 04:39:30;;;;;;;61.97;28.30;;;;;;;7.70;55.18;97124.19;6296229;28;20040;-74
2023/04/05 04:42:37;;;;;;;72.05;27.60;;;;;;;7.89;54.93;97122.34;6295940;28;20051;-74
2023/04/05 04:45:45;;;;;;;65.25;27.30;;;;;;;8.10;54.21;97113.41;6297482;28;20036;-75
2023/04/05 04:48:50;;;;;;;62.97;28.17;;;;;;;8.29;54.16;97112.44;6297583;28;20260;-75
2023/04/05 04:51:52;;;;;;;;;;;;;;;8.50;53.52;97102.66;6297221;28;20041;-73
2023/04/05 04:54:56;;;;;;;58.15;25.20;;;;;;;8.65;53.20;97098.38;6295019;28;20023;-73
2023/04/05 04:58:08;;;;;;;56.40;26.50;;;;;;;8.85;53.08;97102.53;6297057;28;20184;-74
2023/04/05 05:01:13;;;;;;;65.30;26.50;;;;;;;9.03;52.86;97108.56;6295646;28;20428;-74
2023/04/05 05:04:16;;;;;;;;;;;;;;;9.25;52.41;97100.34;6293766;28;20044;-74
2023/04/05 05:07:21;;;;;;;58.33;21.50;;;;;;;9.39;52.08;97090.75;6294990;28;20057;-75
2023/04/05 05:10:26;;;;;;;42.92;18.98;;;;;;;9.55;51.79;97100.41;6296261;28;20396;-73
2023/04/05 05:13:30;;;;;;;47.28;18.15;;;;;;;9.73;51.55;97088.81;6295205;28;20065;-74
2023/04/05 05:16:35;;;;;;;34.20;17.85;;;;;;;9.89;51.34;97092.25;6295684;28;20047;-75
2023/04/05 05:19:37;;;;;;;;;;;;;;;10.13;50.86;97089.09;6295474;28;20426;-75
2023/04/05 05:22:42;;;;;;;35.63;15.77;;;;;;;10.24;50.70;97088.47;6294642;28;19920;-73
2023/04/05 05:25:45;;;;;;;;;;;;;;;11.13;49.63;97091.75;6296139;28;20039;-74
2023/04/05 05:28:50;;;;;;;23.55;10.25;;;;;;;16.63;39.77;97082.59;6296044;28;20011;-75
2023/04/05 05:31:54;;;;;;;16.52;7.60;;;;;;;22.37;31.03;97087.13;6296259;28;20040;-74
2023/04/05 05:34:58;;;;;;;9.75;5.60;;;;;;;26.94;25.31;97079.56;6294693;28;20040;-74
2023/04/05 05:38:02;;;;;;;12.27;4.43;;;;;;;30.50;21.21;97071.81;6295612;28;20437;-75
2023/04/05 05:41:07;;;;;;;10.98;3.90;;;;;;;33.22;18.09;97078.34;6295972;28;20127;-74
2023/04/05 05:44:10;;;;;;;14.88;3.90;;;;;;;35.42;16.29;97080.47;6295940;28;20059;-75
2023/04/05 05:47:15;;;;;;;12.50;3.40;;;;;;;37.19;14.40;97072.66;6295876;28;20055;-74
2023/04/05 05:50:19;;;;;;;11.23;3.33;;;;;;;38.98;12.88;97073.19;6296020;28;20406;-74
2023/04/05 05:53:24;;;;;;;9.05;1.95;;;;;;;40.54;11.51;97060.16;6295800;28;20043;-74
2023/04/05 05:56:28;;;;;;;9.85;2.20;;;;;;;41.52;10.68;97057.34;6294624;28;20497;-75
2023/04/05 05:59:32;;;;;;;10.30;2.35;;;;;;;42.64;10.09;97061.31;6295264;28;20040;-74
2023/04/05 06:02:37;;;;;;;8.55;2.17;;;;;;;43.77;8.88;97064.78;6295785;28;20047;-75
2023/04/05 06:05:49;;;;;;;12.07;2.10;;;;;;;44.35;8.07;97059.38;6295399;28;20040;-75
2023/04/05 06:08:54;;;;;;;10.35;1.90;;;;;;;44.49;8.01;97055.75;6295262;28;20044;-74
2023/04/05 06:11:59;;;;;;;8.60;2.05;;;;;;;44.71;7.66;97050.19;6294478;28;20047;-75
2023/04/05 06:15:03;;;;;;;9.38;2.00;;;;;;;44.84;7.13;97053.22;6294482;28;20139;-75
2023/04/05 06:18:08;;;;;;;10.52;2.38;;;;;;;45.77;6.87;97042.06;6292459;28;20041;-75
2023/04/05 06:21:13;;;;;;;10.25;2.25;;;;;;;46.62;6.69;97038.84;6294886;28;20501;-75
2023/04/05 06:24:16;;;;;;;9.32;2.13;;;;;;;47.36;6.22;97042.47;6293882;28;20096;-75
2023/04/05 06:27:22;;;;;;;9.18;2.05;;;;;;;47.83;5.57;97034.06;6295009;28;20049;-75
2023/04/05 06:30:26;;;;;;;9.90;2.80;;;;;;;48.38;5.40;97038.56;6294909;28;20140;-75
2023/04/05 06:33:30;;;;;;;12.35;2.30;;;;;;;48.60;5.44;97043.00;6294533;28;20139;-75
2023/04/05 06:36:34;;;;;;;12.20;2.28;;;;;;;48.70;4.84;97036.19;6294859;28;20041;-74
2023/04/05 06:39:37;;;;;;;19.23;2.63;;;;;;;48.83;5.04;97028.66;6294832;28;20060;-76
2023/04/05 06:42:42;;;;;;;17.13;2.97;;;;;;;48.90;4.86;97028.94;6294472;28;20058;-75
2023/04/05 06:45:46;;;;;;;13.07;3.03;;;;;;;48.17;4.24;97021.03;6294603;28;20411;-74
2023/04/05 06:48:51;;;;;;;12.80;2.20;;;;;;;48.48;4.18;97018.63;6297458;28;20035;-75
2023/04/05 06:51:55;;;;;;;11.93;2.53;;;;;;;49.03;3.97;97022.19;6317694;28;20058;-75
2023/04/05 06:55:00;;;;;;;17.20;2.30;;;;;;;49.54;4.14;97019.91;6301131;28;20415;-75
2023/04/05 06:58:05;;;;;;;12.90;1.92;;;;;;;49.95;3.86;97023.66;6269592;28;20048;-74
2023/04/05 07:01:10;;;;;;;6.88;1.23;;;;;;;49.00;3.85;97022.88;6269780;28;20129;-75
2023/04/05 07:04:15;;;;;;;6.40;1.23;;;;;;;48.26;4.01;97010.63;6288774;28;20047;-75
2023/04/05 07:07:19;;;;;;;6.13;1.33;;;;;;;47.91;4.06;97013.66;6274499;28;20048;-74
2023/04/05 07:10:24;;;;;;;3.10;0.90;;;;;;;48.53;3.77;97007.28;6298137;28;20558;-75
2023/04/05 07:13:28;;;;;;;9.85;1.30;;;;;;;48.77;3.74;97014.09;6299050;28;20056;-75
2023/04/05 07:16:33;;;;;;;5.18;1.02;;;;;;;48.35;4.05;97014.13;6299409;28;20043;-75
2023/04/05 07:19:38;;;;;;;4.72;1.00;;;;;;;48.34;3.89;97015.31;6299437;28;20508;-75
2023/04/05 07:22:43;;;;;;;3.90;0.90;;;;;;;48.71;4.13;97009.88;6299046;28;20101;-75
2023/04/05 07:25:48;;;;;;;5.32;1.08;;;;;;;49.28;3.77;97011.88;6299108;28;20421;-75
2023/04/05 07:28:52;;;;;;;2.90;0.93;;;;;;;48.66;4.17;96996.13;6298827;28;20047;-75
2023/04/05 07:31:55;;;;;;;2.28;0.85;;;;;;;47.86;4.09;96991.56;6298518;28;20040;-74
2023/04/05 07:34:59;;;;;;;3.40;0.80;;;;;;;48.70;4.30;96991.50;6296961;28;20059;-75
2023/04/05 07:38:04;;;;;;;3.83;0.80;;;;;;;49.37;3.51;96981.81;6298800;28;20041;-75
2023/04/05 07:41:09;;;;;;;6.20;0.88;;;;;;;48.99;3.97;96982.97;6297446;28;20048;-75
2023/04/05 07:44:14;;;;;;;2.05;1.05;;;;;;;49.36;3.67;96974.63;6298656;28;20127;-75
2023/04/05 07:47:18;;;;;;;4.32;0.85;;;;;;;49.71;3.47;96974.13;6297280;28;20051;-75
2023/04/05 07:50:23;;;;;;;3.50;0.90;;;;;;;49.93;3.77;96963.59;6288744;28;20053;-76
2023/04/05 07:53:27;;;;;;;8.10;1.23;;;;;;;49.75;3.63;96969.47;6273549;28;20041;-76
2023/04/05 07:56:32;;;;;;;5.85;1.02;;;;;;;48.99;3.75;96971.78;6293690;28;20501;-75
2023/04/05 07:59:35;;;;;;;3.80;0.90;;;;;;;49.59;3.34;96965.78;6298366;28;20047;-75
2023/04/05 08:02:40;;;;;;;5.00;1.00;;;;;;;49.60;3.59;96968.22;6297908;28;20045;-77
2023/04/05 08:05:43;;;;;;;2.75;0.63;;;;;;;50.36;3.16;96962.91;6298696;28;20036;-75
2023/04/05 08:08:48;;;;;;;5.18;0.82;;;;;;;50.78;3.00;96961.66;6297831;28;20040;-76
2023/04/05 08:11:53;;;;;;;4.05;0.75;;;;;;;50.64;3.12;96948.88;6297577;28;20051;-74
2023/04/05 08:14:56;;;;;;;3.80;0.88;;;;;;;50.39;2.99;96952.97;6296190;28;20063;-75
2023/04/05 08:21:26;;;;;;;1.88;0.60;;;;;;;48.50;3.63;96943.72;6297515;28;20036;-75
2023/04/05 08:24:28;;;;;;;3.03;0.60;;;;;;;49.50;3.23;96935.13;6294727;28;20040;-76
2023/04/05 08:27:33;;;;;;;4.55;0.65;;;;;;;50.42;2.97;96941.06;6296115;28;20421;-76
2023/04/05 08:30:38;;;;;;;18.75;1.90;;;;;;;51.18;2.86;96939.06;6297317;28;20044;-76
2023/04/05 08:33:45;;;;;;;5.88;0.57;;;;;;;51.34;2.70;96941.88;6296498;28;20048;-76
2023/04/05 08:36:49;;;;;;;4.72;0.80;;;;;;;50.79;2.78;96935.25;6297453;28;20045;-75
2023/04/05 08:39:53;;;;;;;1.30;0.70;;;;;;;50.25;2.75;96917.81;6279157;28;20468;-76
2023/04/05 08:43:10;;;;;;;2.92;0.60;;;;;;;50.11;3.16;96925.78;6297439;28;20417;-75
2023/04/05 08:46:16;;;;;;;2.55;0.50;;;;;;;48.95;3.01;96922.53;6312710;28;20121;-76
2023/04/05 08:49:21;;;;;;;8.20;1.40;;;;;;;46.99;4.08;96908.38;6297018;28;20384;-76
2023/04/05 08:52:26;;;;;;;2.50;0.98;;;;;;;47.49;3.88;96910.44;6297214;28;20045;-76
2023/04/05 08:55:31;;;;;;;3.97;0.60;;;;;;;48.83;3.64;96912.16;6296881;28;20052;-75
2023/04/05 08:58:42;;;;;;;15.02;1.85;;;;;;;48.26;3.29;96915.75;6296033;28;20053;-75
2023/04/05 09:01:50;;;;;;;3.72;0.90;;;;;;;48.37;3.29;96905.78;6295514;28;20044;-76
2023/04/05 09:04:53;;;;;;;1.67;0.75;;;;;;;49.09;3.24;96897.03;6285056;28;20044;-75
2023/04/05 09:07:57;;;;;;;4.00;0.70;;;;;;;49.27;2.88;96904.06;6286455;28;20510;-74
2023/04/05 09:11:02;;;;;;;3.08;0.70;;;;;;;49.52;2.84;96893.66;6271705;28;20052;-76
2023/04/05 09:14:07;;;;;;;4.05;0.57;;;;;;;49.02;3.10;96894.03;6271628;28;20425;-75
2023/04/05 09:17:12;;;;;;;1.77;0.60;;;;;;;48.70;2.76;96885.41;6293103;28;20048;-76
2023/04/05 09:20:19;;;;;;;3.75;0.70;;;;;;;48.59;2.90;96884.22;6296533;28;20048;-76
2023/04/05 09:23:24;;;;;;;2.53;0.43;;;;;;;47.83;2.86;96875.09;6296240;28;20039;-76
2023/04/05 09:26:29;;;;;;;4.22;0.70;;;;;;;46.94;3.46;96866.81;6296999;28;20047;-75
2023/04/05 09:29:33;;;;;;;3.90;0.88;;;;;;;46.51;3.08;96865.00;6294985;28;20060;-76
2023/04/05 09:32:47;;;;;;;2.25;0.70;;;;;;;45.16;3.63;96860.50;6295607;28;20497;-75
2023/04/05 09:35:51;;;;;;;3.90;0.75;;;;;;;43.54;3.90;96848.56;6296417;28;20060;-75
2023/04/05 09:39:05;;;;;;;4.35;0.80;;;;;;;43.27;4.31;96844.78;6295201;28;20039;-76
2023/04/05 09:42:11;;;;;;;4.65;1.00;;;;;;;43.52;4.06;96838.97;6294216;28;20425;-76
2023/04/05 09:45:17;;;;;;;6.47;1.23;;;;;;;43.63;3.94;96832.91;6295661;28;20036;-76
2023/04/05 09:48:21;;;;;;;2.25;0.70;;;;;;;43.10;4.16;96830.75;6295566;28;20043;-75
2023/04/05 09:51:33;;;;;;;5.93;2.17;;;;;;;41.80;4.57;96835.38;6285782;28;20055;-77
2023/04/05 09:54:44;;;;;;;5.38;1.35;;;;;;;42.12;4.41;96828.22;6278619;28;20040;-75
2023/04/05 09:57:49;;;;;;;13.23;2.25;;;;;;;42.71;4.48;96829.31;6291453;28;20127;-75
2023/04/05 10:00:54;;;;;;;4.90;0.68;;;;;;;41.80;4.51;96818.78;6295809;28;20044;-75
2023/04/05 10:03:59;;;;;;;3.42;0.90;;;;;;;39.88;4.93;96799.69;6277215;28;20205;-75
2023/04/05 10:07:04;;;;;;;3.15;0.70;;;;;;;38.55;5.06;96789.47;6295554;28;20039;-76
2023/04/05 10:10:09;;;;;;;1.70;0.93;;;;;;;37.89;5.76;96793.16;6295832;28;20050;-75
2023/04/05 10:13:19;;;;;;;3.17;1.00;;;;;;;37.50;4.91;96791.78;6276518;28;20049;-77
2023/04/05 10:16:28;;;;;;;2.50;0.60;;;;;;;35.90;5.46;96785.91;6275914;28;20421;-75
2023/04/05 10:19:56;;;;;;;4.38;0.88;;;;;;;34.73;5.61;96782.84;6295044;28;20135;-76
2023/04/05 10:23:35;;;;;;;5.95;1.27;;;;;;;33.37;6.06;96780.56;6295018;28;20052;-75
2023/04/05 10:27:03;;;;;;;2.78;0.85;;;;;;;33.28;6.04;96777.41;6281387;28;20063;-76
2023/04/05 10:30:07;;;;;;;8.60;1.60;;;;;;;32.58;6.58;96782.13;6294149;28;20032;-76
2023/04/05 10:33:39;;;;;;;7.78;1.52;;;;;;;32.38;7.05;96773.47;6294068;28;20406;-75
2023/04/05 10:36:59;;;;;;;2.05;0.88;;;;;;;32.24;7.04;96791.13;6294464;28;20055;-76
2023/04/05 10:40:08;;;;;;;1.98;0.95;;;;;;;31.14;7.71;96763.50;6294625;28;20044;-75
2023/04/05 10:43:20;;;;;;;10.90;5.15;;;;;;;30.82;8.34;96766.44;6294371;28;20036;-76
2023/04/05 10:46:25;;;;;;;1.27;0.87;;;;;;;30.49;8.68;96771.47;6293808;28;20036;-78
2023/04/05 10:49:32;;;;;;;2.30;0.90;;;;;;;30.37;9.28;96758.66;6294302;28;20048;-75
2023/04/05 10:52:39;;;;;;;1.15;0.70;;;;;;;30.84;8.92;96764.34;6294376;28;20039;-76
2023/04/05 10:55:44;;;;;;;1.88;0.68;;;;;;;30.87;8.89;96761.16;6294220;28;20040;-76
2023/04/05 10:58:51;;;;;;;4.85;1.00;;;;;;;30.74;8.98;96753.16;6294204;28;20141;-75
2023/04/05 11:01:57;;;;;;;4.75;1.20;;;;;;;30.23;9.23;96749.00;6294278;28;20037;-76
2023/04/05 11:05:05;;;;;;;4.40;1.00;;;;;;;30.51;8.82;96742.19;6292868;28;20036;-75
2023/04/05 11:08:14;;;;;;;2.88;1.15;;;;;;;30.39;8.99;96751.13;6283583;28;20310;-75
2023/04/05 11:11:21;;;;;;;2.25;1.02;;;;;;;29.86;8.92;96740.84;6272938;28;20074;-78
2023/04/05 11:14:35;;;;;;;2.85;0.85;;;;;;;28.87;9.56;96726.22;6292723;28;20056;-77
2023/04/05 11:17:39;;;;;;;2.25;0.90;;;;;;;28.94;9.69;96726.19;6293112;28;20047;-74
2023/04/05 11:20:56;;;;;;;2.65;1.00;;;;;;;28.46;9.98;96723.97;6275555;28;20101;-77
2023/04/05 11:24:05;;;;;;;2.42;0.70;;;;;;;28.29;9.89;96716.31;6293456;28;20048;-75
2023/04/05 11:27:11;;;;;;;5.32;1.38;;;;;;;28.68;9.85;96703.66;6293211;28;20048;-75
2023/04/05 11:30:55;;;;;;;5.63;1.27;;;;;;;28.15;9.97;96702.00;6292599;28;20040;-75
2023/04/05 11:34:11;;;;;;;2.42;0.90;;;;;;;27.42;10.36;96706.75;6292507;28;20048;-77
2023/04/05 11:37:19;;;;;;;3.47;0.90;;;;;;;27.34;11.04;96704.28;6284408;28;20037;-75
2023/04/05 11:40:36;;;;;;;3.97;1.00;;;;;;;27.16;11.14;96692.25;6268919;28;20040;-77
2023/04/05 11:43:41;;;;;;;12.82;5.75;;;;;;;27.07;10.64;96688.06;6271884;28;20060;-75
2023/04/05 11:46:52;;;;;;;3.83;1.00;;;;;;;27.05;10.63;96696.34;6292053;28;20058;-75
2023/04/05 11:49:58;;;;;;;4.38;0.90;;;;;;;26.69;10.82;96696.75;6288341;28;20044;-76
2023/04/05 11:53:16;;;;;;;5.03;1.00;;;;;;;27.79;10.07;96702.56;6310132;28;20051;-76
2023/04/05 11:56:20;;;;;;;2.60;0.98;;;;;;;28.04;9.98;96697.28;6297324;28;20150;-76
2023/04/05 11:59:36;;;;;;;3.33;0.73;;;;;;;27.46;10.61;96698.03;6296977;28;20135;-75
2023/04/05 12:02:43;;;;;;;4.35;1.00;;;;;;;26.86;11.12;96697.19;6313383;28;20041;-75
2023/04/05 12:05:53;;;;;;;4.63;1.10;;;;;;;26.08;11.76;96699.47;6297636;28;20032;-75
2023/04/05 12:09:01;;;;;;;2.85;1.13;;;;;;;25.63;12.40;96699.00;6297776;28;20043;-75
2023/04/05 12:12:19;;;;;;;9.00;1.83;;;;;;;25.14;13.28;96699.88;6297661;28;20131;-75
2023/04/05 12:15:24;;;;;;;5.43;1.23;;;;;;;24.68;13.47;96697.63;6297575;28;20417;-75
2023/04/05 12:18:31;;;;;;;2.72;1.10;;;;;;;24.55;14.25;96704.53;6297343;28;20050;-75
2023/04/05 12:21:40;;;;;;;4.47;1.45;;;;;;;24.62;14.45;96702.72;6297992;28;20040;-74
2023/04/05 12:24:45;;;;;;;5.40;1.80;;;;;;;24.36;14.73;96702.44;6296341;28;20044;-75
2023/04/05 12:27:50;;;;;;;2.60;1.40;;;;;;;23.81;15.40;96695.75;6291555;28;20517;-75
2023/04/05 12:30:56;;;;;;;5.20;1.23;;;;;;;23.24;15.63;96690.00;6295955;28;20442;-75
2023/04/05 12:34:00;;;;;;;7.82;1.20;;;;;;;22.94;15.19;96686.41;6297368;28;20424;-75
2023/04/05 12:37:05;;;;;;;9.02;1.48;;;;;;;22.57;15.18;96676.50;6297566;28;20048;-75
2023/04/05 12:40:09;;;;;;;5.18;1.40;;;;;;;22.47;15.22;96683.94;6296672;28;20051;-75
2023/04/05 12:43:18;;;;;;;5.38;1.60;;;;;;;22.39;15.08;96679.44;6296991;28;20040;-75
2023/04/05 12:46:38;;;;;;;5.15;1.33;;;;;;;22.32;15.22;96684.69;6297323;28;20501;-75
2023/04/05 12:49:41;;;;;;;4.00;1.30;;;;;;;22.01;15.42;96675.81;6306379;28;20425;-75
2023/04/05 12:52:58;;;;;;;4.63;1.60;;;;;;;21.74;15.65;96672.63;6304289;28;20494;-74
2023/04/05 12:56:06;;;;;;;4.78;1.52;;;;;;;21.75;15.79;96676.94;6270548;28;20045;-76
2023/04/05 12:59:11;;;;;;;7.03;2.08;;;;;;;21.53;16.30;96674.00;6272143;28;20049;-73
2023/04/05 13:02:15;;;;;;;2.72;1.20;;;;;;;21.38;16.58;96665.03;6270813;28;20581;-74
2023/04/05 13:05:24;;;;;;;3.97;1.20;;;;;;;21.43;16.40;96662.69;6271317;28;20048;-74
2023/04/05 13:08:29;;;;;;;7.43;1.58;;;;;;;21.19;16.62;96676.09;6294322;28;20045;-75
2023/04/05 13:11:33;;;;;;;1.77;1.27;;;;;;;21.03;16.78;96660.91;6296932;28;20398;-74
2023/04/05 13:14:37;;;;;;;6.45;1.40;;;;;;;20.71;17.13;96661.78;6294651;28;20052;-75
2023/04/05 13:17:44;;;;;;;6.32;1.73;;;;;;;20.35;17.59;96662.06;6294333;28;20041;-74
2023/04/05 13:20:48;;;;;;;4.20;2.10;;;;;;;20.24;18.07;96665.06;6295297;28;20064;-76
2023/04/05 13:23:52;;;;;;;5.70;1.75;;;;;;;20.04;18.33;96670.72;6295981;28;20051;-75
2023/04/05 13:26:58;;;;;;;7.05;2.20;;;;;;;19.77;18.63;96660.28;6296155;28;20047;-74
2023/04/05 13:30:03;;;;;;;5.55;1.65;;;;;;;19.55;18.84;96665.16;6296541;28;20050;-76
2023/04/05 13:33:08;;;;;;;4.28;2.13;;;;;;;19.39;19.47;96659.75;6296086;28;20440;-75
2023/04/05 13:36:13;;;;;;;8.65;1.88;;;;;;;18.99;19.96;96661.22;6295971;28;20051;-75
2023/04/05 13:39:17;;;;;;;8.60;2.00;;;;;;;18.63;20.45;96655.94;6295946;28;20500;-74
2023/04/05 13:42:23;;;;;;;7.32;2.10;;;;;;;18.49;20.77;96654.66;6294516;28;20454;-75
2023/04/05 13:45:27;;;;;;;10.85;2.03;;;;;;;18.11;21.17;96650.47;6295979;28;20047;-78
2023/04/05 13:48:32;;;;;;;7.28;2.03;;;;;;;17.94;21.55;96650.31;6295483;28;20048;-75
2023/04/05 13:51:42;;;;;;;5.80;1.88;;;;;;;17.66;21.94;96640.66;6306180;28;20443;-75
2023/04/05 13:54:47;;;;;;;5.78;1.77;;;;;;;17.38;22.45;96645.16;6294132;28;20201;-75
2023/04/05 13:57:52;;;;;;;6.18;2.00;;;;;;;17.28;22.78;96640.72;6296045;28;20043;-75
2023/04/05 14:00:57;;;;;;;5.05;1.67;;;;;;;17.03;23.15;96650.19;6295497;28;20509;-76
2023/04/05 14:04:03;;;;;;;8.32;2.15;;;;;;;16.79;23.47;96640.06;6295764;28;20052;-75
2023/04/05 14:07:07;;;;;;;7.68;1.65;;;;;;;16.51;23.90;96631.13;6294937;28;20444;-76
2023/04/05 14:10:12;;;;;;;7.97;1.95;;;;;;;16.32;24.28;96633.81;6293465;28;20041;-75
2023/04/05 14:13:17;;;;;;;6.90;1.83;;;;;;;16.11;24.71;96624.19;6276678;28;20048;-76
2023/04/05 14:16:21;;;;;;;8.27;1.75;;;;;;;15.99;24.96;96633.25;6294911;28;20414;-75
2023/04/05 14:19:25;;;;;;;5.43;1.75;;;;;;;15.73;25.25;96627.63;6294085;28;20075;-75
2023/04/05 14:22:29;;;;;;;7.28;2.08;;;;;;;15.60;25.58;96624.41;6293782;28;20044;-76
2023/04/05 14:25:34;;;;;;;7.10;1.90;;;;;;;15.54;25.83;96622.25;6294624;28;20417;-75
2023/04/05 14:28:39;;;;;;;14.90;6.07;;;;;;;15.20;26.03;96626.09;6294218;28;20591;-76
2023/04/05 14:31:46;;;;;;;8.60;2.13;;;;;;;15.14;26.28;96628.44;6293537;28;20067;-75
2023/04/05 14:34:51;;;;;;;5.88;1.70;;;;;;;14.91;26.56;96625.13;6294849;28;20056;-75
2023/04/05 14:37:59;;;;;;;6.53;1.92;;;;;;;14.82;26.94;96619.66;6294474;28;20040;-75
2023/04/05 14:41:05;;;;;;;7.82;3.08;;;;;;;14.62;27.17;96617.88;6293304;28;20062;-76
2023/04/05 14:44:11;;;;;;;8.23;1.77;;;;;;;14.44;27.58;96617.59;6295036;28;20071;-75
2023/04/05 14:47:18;;;;;;;6.45;1.58;;;;;;;14.32;27.79;96624.78;6278590;28;20523;-76
2023/04/05 14:50:22;;;;;;;5.18;1.30;;;;;;;14.19;28.10;96616.16;6308083;28;20405;-76